カーディフ の空港の天気 - METARとTAF

カーディフ空港 ( EGFF / CWL ) - イギリス カーディフ
飛行場実況気象(Metar)
観測時間12/06 19:50 GMT (12/06 19:50 UTC)
風向・風速西北西 6m/s
視程10km以上
天気現象
全天を覆う雲 雲底高度 880m
気温10℃
湿度82%
気圧1008hPa
METAREGFF 061950Z AUTO 29012KT 9999 OVC029 10/07 Q1008
過去の天気等 Google飛行場航空写真 Wunderground天気予報

過去48時間のMETAR

飛行場予報(TAF)
発表時間: 12/06 17:01 GMT (12/06 17:01 UTC)
予報対象時間: 6日18時 GMT ~ 7日18時 GMT
風向・風速西 10m/s 瞬間風速 15m/s
視程10km以上
全天の4割程度の雲 雲底高度 760m
6日18時 GMT ~ 6日21時 GMT に徐々に
風向・風速西 7m/s
7日2時 GMT ~ 7日18時 GMT に一時的に
視程8000m
全天の8割程度の雲 雲底高度 300m
TAF EGFF 061701Z 0618/0718 27020G30KT 9999 SCT025
BECMG 0618/0621 27014KT
TEMPO 0702/0718 8000 BKN010